Time;durP1;ratioP1;P1;durP2;ratioP2;P2;SDS_P1;SDS_P2;PMS_P1;PMS_P2;Temp;Humidity;BMP_temperature;BMP_pressure;BME280_temperature;BME280_humidity;BME280_pressure;Samples;Min_cycle;Max_cycle;Signal;HPM_P1;HPM_P2
2022/03/12 00:00:37;;;;;;;;;17.00;6.75;;;;;9.39;73.52;100888.72;5078179;27;45663;-55
2022/03/12 00:03:03;;;;;;;;;10.75;7.00;;;;;9.35;72.87;100889.13;5077988;27;45509;-57
2022/03/12 00:05:33;;;;;;;;;10.25;4.00;;;;;9.34;71.48;100908.69;5078284;27;45289;-54
2022/03/12 00:08:03;;;;;;;;;10.75;6.50;;;;;9.30;72.23;100916.09;5078304;27;45610;-57
2022/03/12 00:10:32;;;;;;;;;6.00;4.50;;;;;9.24;72.70;100912.16;5078165;27;45441;-57
2022/03/12 00:13:01;;;;;;;;;10.25;3.00;;;;;9.19;72.74;100909.06;5077980;27;45456;-53
2022/03/12 00:15:37;;;;;;;;;4.00;4.00;;;;;9.20;73.55;100909.91;5078107;27;45398;-51
2022/03/12 00:18:03;;;;;;;;;6.25;6.00;;;;;9.18;73.93;100919.81;5078090;27;45406;-52
2022/03/12 00:20:29;;;;;;;;;8.25;5.00;;;;;9.13;73.04;100912.25;5077999;27;46269;-54
2022/03/12 00:22:56;;;;;;;;;7.00;3.00;;;;;9.18;72.77;100928.59;5077762;28;45381;-56
2022/03/12 00:25:24;;;;;;;;;8.75;5.00;;;;;9.16;72.96;100917.31;5077665;27;45236;-52
2022/03/12 00:27:51;;;;;;;;;9.00;5.00;;;;;9.10;73.15;100916.97;5026959;27;45469;-53
2022/03/12 00:30:22;;;;;;;;;10.00;10.00;;;;;9.17;73.60;100934.91;4974698;28;45401;-52
2022/03/12 00:32:49;;;;;;;;;9.00;7.00;;;;;9.22;73.06;100934.50;4975122;28;45509;-55
2022/03/12 00:35:16;;;;;;;;;7.50;7.50;;;;;9.21;72.83;100923.03;4975199;28;45415;-55
2022/03/12 00:37:42;;;;;;;;;3.25;3.25;;;;;9.36;72.71;100933.31;4975156;28;45534;-55
2022/03/12 00:40:08;;;;;;;;;10.75;6.00;;;;;9.42;73.02;100932.75;4974857;28;46120;-54
2022/03/12 00:42:33;;;;;;;;;9.50;5.00;;;;;9.43;72.02;100924.66;4975325;28;45399;-57
2022/03/12 00:44:59;;;;;;;;;5.50;5.50;;;;;9.54;71.82;100934.34;4975653;28;45449;-54
2022/03/12 00:47:26;;;;;;;;;7.75;5.00;;;;;9.55;71.62;100938.66;4976457;28;45345;-56
2022/03/12 00:49:53;;;;;;;;;5.25;4.50;;;;;9.60;71.98;100947.06;4975592;28;47170;-56
2022/03/12 00:52:19;;;;;;;;;6.25;5.00;;;;;9.62;72.20;100952.25;4975372;28;45514;-51
2022/03/12 00:54:44;;;;;;;;;5.00;5.00;;;;;9.64;71.50;100958.25;4976715;28;45456;-56
2022/03/12 00:57:12;;;;;;;;;6.25;5.25;;;;;9.65;71.54;100973.22;4975252;28;45303;-55
2022/03/12 00:59:41;;;;;;;;;7.50;3.00;;;;;9.63;71.74;100970.72;4975058;28;46200;-49
2022/03/12 01:02:10;;;;;;;;;6.50;3.50;;;;;9.70;72.09;100973.69;4974870;28;46296;-54
2022/03/12 01:04:36;;;;;;;;;6.25;5.75;;;;;9.73;71.53;100974.25;4975161;28;45438;-56
2022/03/12 01:07:02;;;;;;;;;5.50;2.75;;;;;9.74;71.68;100975.94;4975023;28;45493;-55
2022/03/12 01:09:28;;;;;;;;;5.00;5.00;;;;;9.67;71.12;100958.00;4974913;28;47401;-51
2022/03/12 01:11:54;;;;;;;;;3.00;3.00;;;;;9.79;71.34;100983.50;4975067;28;45449;-49
2022/03/12 01:14:19;;;;;;;;;6.00;3.00;;;;;9.79;71.39;100980.84;4974736;28;45327;-54
2022/03/12 01:16:45;;;;;;;;;2.67;2.67;;;;;9.81;71.54;100992.16;4974940;28;45320;-58
2022/03/12 01:19:10;;;;;;;;;2.00;2.00;;;;;9.81;70.93;100986.84;4973923;28;45343;-55
2022/03/12 01:21:35;;;;;;;;;7.25;4.00;;;;;9.80;71.13;100993.13;4974185;28;45318;-55
2022/03/12 01:24:01;;;;;;;;;3.00;2.00;;;;;9.80;71.14;100993.13;4974537;28;45287;-56
2022/03/12 01:26:27;;;;;;;;;6.33;3.67;;;;;9.79;70.96;100994.13;4974922;28;45442;-56
2022/03/12 01:28:52;;;;;;;;;2.00;2.00;;;;;9.80;71.28;101000.25;4974373;28;46169;-53
2022/03/12 01:31:18;;;;;;;;;4.33;2.33;;;;;9.80;71.11;100997.59;4974373;28;45345;-57
2022/03/12 01:33:44;;;;;;;;;7.00;3.00;;;;;9.79;71.45;100998.59;4974422;28;45410;-57
2022/03/12 01:36:09;;;;;;;;;4.50;4.50;;;;;9.73;70.96;100984.00;4974553;28;45431;-55
2022/03/12 01:38:47;;;;;;;;;2.67;2.67;;;;;9.64;70.95;100990.97;4974103;28;46039;-59
2022/03/12 01:41:15;;;;;;;;;4.00;3.00;;;;;9.53;71.85;100977.81;4974048;28;45434;-55
2022/03/12 01:43:43;;;;;;;;;7.67;5.00;;;;;9.41;71.68;100984.19;4973515;28;45342;-56
2022/03/12 01:46:10;;;;;;;;;8.00;2.75;;;;;9.37;71.96;100993.41;4974239;28;45351;-56
2022/03/12 01:48:38;;;;;;;;;9.25;6.75;;;;;9.28;72.74;100991.53;4973928;28;46276;-55
2022/03/12 01:51:04;;;;;;;;;7.75;6.00;;;;;9.21;72.93;101002.66;4973955;28;45312;-55
2022/03/12 01:53:29;;;;;;;;;7.00;3.25;;;;;9.16;72.20;100998.75;4973868;28;45512;-54
2022/03/12 01:55:55;;;;;;;;;10.50;5.75;;;;;9.15;72.79;101007.69;4974267;28;45410;-53
2022/03/12 01:58:21;;;;;;;;;5.00;3.25;;;;;9.18;73.20;101000.28;4973985;28;46338;-53
2022/03/12 02:00:51;;;;;;;;;4.75;4.75;;;;;9.22;72.13;101006.16;4973890;28;45335;-55
2022/03/12 02:03:29;;;;;;;;;6.00;5.00;;;;;9.24;72.82;101017.50;4974108;28;45363;-55
2022/03/12 02:05:55;;;;;;;;;4.25;4.25;;;;;9.24;72.09;101026.31;4974189;28;45369;-55
2022/03/12 02:08:22;;;;;;;;;5.25;3.00;;;;;9.17;72.18;101019.00;4973665;28;46034;-54
2022/03/12 02:10:49;;;;;;;;;2.00;2.00;;;;;9.20;72.40;101026.69;5058590;28;45366;-54
2022/03/12 02:13:16;;;;;;;;;5.50;2.50;;;;;9.22;71.53;101027.41;4974018;28;45346;-57
2022/03/12 02:15:42;;;;;;;;;6.00;5.00;;;;;9.25;71.62;101027.16;4974361;28;45330;-53
2022/03/12 02:18:08;;;;;;;;;2.25;2.25;;;;;9.14;71.56;101019.25;4974134;28;46899;-55
2022/03/12 02:20:34;;;;;;;;;6.00;3.75;;;;;9.13;71.87;101021.06;4974313;28;45464;-54
2022/03/12 02:22:59;;;;;;;;;5.75;3.25;;;;;9.14;71.97;101028.06;4974168;28;45389;-55
2022/03/12 02:25:31;;;;;;;;;6.50;2.50;;;;;9.11;71.95;101030.16;4974116;28;45161;-48
2022/03/12 02:27:58;;;;;;;;;5.00;5.00;;;;;9.05;72.10;101020.03;4973564;28;46181;-50
2022/03/12 02:30:44;;;;;;;;;6.00;3.00;;;;;8.95;72.57;101017.31;4973581;28;45480;-49
2022/03/12 02:33:13;;;;;;;;;5.25;4.75;;;;;8.91;72.82;101022.03;5057614;28;45429;-48
2022/03/12 02:35:38;;;;;;;;;7.50;3.00;;;;;8.90;73.01;101023.03;4973768;28;45427;-53
2022/03/12 02:38:05;;;;;;;;;6.75;6.00;;;;;8.90;72.69;101024.84;4973005;28;45975;-51
2022/03/12 02:40:32;;;;;;;;;5.75;5.00;;;;;8.91;73.43;101024.69;4973489;28;45314;-53
2022/03/12 02:42:58;;;;;;;;;6.50;5.00;;;;;8.92;73.05;101025.53;4973049;28;45444;-55
2022/03/12 02:45:28;;;;;;;;;8.50;5.00;;;;;8.94;73.24;101024.44;4973237;28;45376;-50
2022/03/12 02:47:55;;;;;;;;;9.00;5.75;;;;;8.92;73.47;101021.06;4973103;28;46351;-51
2022/03/12 02:50:22;;;;;;;;;4.00;3.75;;;;;8.92;73.17;101023.72;4973009;28;45408;-49
2022/03/12 02:52:47;;;;;;;;;5.75;3.00;;;;;8.93;73.15;101024.56;4973088;28;45407;-53
2022/03/12 02:55:17;;;;;;;;;6.00;5.00;;;;;8.90;73.16;101011.56;4974436;28;45479;-51
2022/03/12 02:57:46;;;;;;;;;7.75;7.00;;;;;8.93;72.70;101028.06;4976037;28;45512;-49
2022/03/12 03:00:13;;;;;;;;;5.00;5.00;;;;;8.97;72.60;101031.28;4975887;28;45474;-53
2022/03/12 03:02:40;;;;;;;;;6.75;5.00;;;;;8.95;72.53;101023.47;4976154;28;45459;-51
2022/03/12 03:05:23;;;;;;;;;8.75;5.00;;;;;9.02;72.15;101036.22;4976028;28;45476;-54
2022/03/12 03:07:54;;;;;;;;;8.25;3.00;;;;;9.01;72.70;101030.06;4975745;28;45461;-50
2022/03/12 03:10:46;;;;;;;;;3.75;3.50;;;;;8.95;72.46;101027.94;4975835;28;45565;-53
2022/03/12 03:13:15;;;;;;;;;5.75;3.00;;;;;9.01;72.55;101035.38;4976073;28;45250;-53
2022/03/12 03:15:42;;;;;;;;;3.00;3.00;;;;;8.97;73.03;101029.50;4976170;28;45308;-53
2022/03/12 03:18:10;;;;;;;;;3.50;3.00;;;;;8.96;73.08;101041.06;4975499;28;47176;-51
2022/03/12 03:20:36;;;;;;;;;7.75;4.00;;;;;8.93;72.96;101037.81;4975997;28;45304;-54
2022/03/12 03:23:01;;;;;;;;;4.50;3.00;;;;;8.89;73.05;101044.34;4975816;28;45331;-52
2022/03/12 03:25:26;;;;;;;;;5.25;5.00;;;;;8.82;72.99;101040.56;4976219;28;45315;-51
2022/03/12 03:27:52;;;;;;;;;5.00;3.75;;;;;8.79;73.04;101046.09;4975930;28;46177;-55
2022/03/12 03:30:17;;;;;;;;;6.25;5.00;;;;;8.73;73.31;101031.56;4975747;28;45456;-53
2022/03/12 03:32:44;;;;;;;;;2.75;2.75;;;;;8.72;73.03;101041.31;4976243;28;45417;-56
2022/03/12 03:35:09;;;;;;;;;4.25;3.00;;;;;8.72;73.80;101051.06;4976012;28;45492;-49
2022/03/12 03:37:34;;;;;;;;;3.75;3.75;;;;;8.63;72.89;101033.25;4975710;28;47042;-52
2022/03/12 03:40:01;;;;;;;;;4.00;1.75;;;;;8.68;72.92;101047.84;4973970;28;45332;-55
2022/03/12 03:42:26;;;;;;;;;5.75;4.50;;;;;8.66;73.24;101048.94;4975900;28;45268;-49
2022/03/12 03:44:57;;;;;;;;;4.50;2.00;;;;;8.63;73.12;101055.31;4975706;28;45374;-53
2022/03/12 03:47:22;;;;;;;;;2.00;2.00;;;;;8.62;73.37;101047.50;4975532;28;47222;-55
2022/03/12 03:49:48;;;;;;;;;4.75;4.50;;;;;8.62;73.12;101053.66;4975587;28;45341;-55
2022/03/12 03:52:13;;;;;;;;;5.50;3.25;;;;;8.64;73.07;101048.22;4975631;28;45390;-51
2022/03/12 03:54:40;;;;;;;;;9.00;5.00;;;;;8.63;73.53;101057.13;4975799;28;45263;-55
2022/03/12 03:57:06;;;;;;;;;9.75;4.00;;;;;8.63;73.33;101059.78;4975482;28;46417;-56
2022/03/12 03:59:31;;;;;;;;;9.25;2.25;;;;;8.61;73.51;101056.44;4975575;28;45428;-55
2022/03/12 04:01:57;;;;;;;;;4.00;4.00;;;;;8.58;73.16;101060.16;4975299;28;45420;-53
2022/03/12 04:04:23;;;;;;;;;7.25;5.00;;;;;8.54;73.87;101056.09;4975870;28;45307;-54
2022/03/12 04:06:48;;;;;;;;;4.50;4.50;;;;;8.50;73.76;101057.31;4974992;28;47382;-53
2022/03/12 04:09:14;;;;;;;;;8.50;4.50;;;;;8.47;73.53;101055.75;4975073;28;45360;-53
2022/03/12 04:11:42;;;;;;;;;4.00;4.00;;;;;8.33;73.26;101039.25;4975439;28;45419;-56
2022/03/12 04:14:08;;;;;;;;;9.25;5.50;;;;;8.38;74.20;101048.53;4973999;28;45388;-55
2022/03/12 04:16:34;;;;;;;;;5.75;4.75;;;;;8.37;73.25;101053.97;4975178;28;46397;-55
2022/03/12 04:19:04;;;;;;;;;4.50;4.50;;;;;8.32;73.81;101049.00;4975335;28;45218;-53
2022/03/12 04:21:29;;;;;;;;;4.00;3.00;;;;;8.30;73.41;101060.69;4975342;28;45422;-55
2022/03/12 04:23:55;;;;;;;;;11.50;7.00;;;;;8.33;74.03;101058.66;4975116;28;45437;-55
2022/03/12 04:26:20;;;;;;;;;5.00;5.00;;;;;8.32;74.04;101064.91;4974971;28;47138;-54
2022/03/12 04:28:46;;;;;;;;;5.00;4.00;;;;;8.29;74.14;101065.16;4975258;28;45270;-51
2022/03/12 04:31:13;;;;;;;;;5.25;4.50;;;;;8.23;74.39;101058.56;4975033;28;45260;-52
2022/03/12 04:33:39;;;;;;;;;5.50;4.50;;;;;8.24;74.35;101057.59;4975326;28;45581;-54
2022/03/12 04:36:05;;;;;;;;;2.50;2.50;;;;;8.21;74.00;101059.63;4974774;28;45357;-56
2022/03/12 04:38:31;;;;;;;;;5.75;4.00;;;;;8.16;73.26;101059.16;4974889;28;45394;-55
2022/03/12 04:40:57;;;;;;;;;4.25;3.25;;;;;8.13;74.26;101049.69;4975048;28;45470;-56
2022/03/12 04:43:28;;;;;;;;;7.00;4.00;;;;;8.05;73.96;101051.22;4975034;28;45427;-55
2022/03/12 04:45:55;;;;;;;;;8.00;5.00;;;;;8.08;74.05;101062.44;4974914;28;46248;-56
2022/03/12 04:48:22;;;;;;;;;2.50;2.50;;;;;8.07;74.40;101065.22;4974905;28;45347;-53
2022/03/12 04:50:48;;;;;;;;;3.00;1.00;;;;;8.04;74.77;101074.22;4974883;28;45525;-57
2022/03/12 04:53:15;;;;;;;;;5.00;2.00;;;;;7.95;74.39;101056.44;4974683;28;45781;-54
2022/03/12 04:55:41;;;;;;;;;2.00;2.00;;;;;8.01;74.21;101071.84;4974630;28;45948;-56
2022/03/12 04:58:09;;;;;;;;;4.25;2.00;;;;;7.88;73.78;101058.75;4974408;28;45414;-56
2022/03/12 05:00:38;;;;;;;;;6.75;4.50;;;;;7.97;73.93;101083.66;4974837;28;45461;-56
2022/03/12 05:03:09;;;;;;;;;9.75;4.75;;;;;7.98;74.24;101083.53;4974767;28;45490;-57
2022/03/12 05:05:39;;;;;;;;;2.50;2.50;;;;;7.96;73.98;101095.19;4974610;28;45440;-56
2022/03/12 05:08:18;;;;;;;;;5.50;3.25;;;;;7.92;74.51;101091.97;4974488;28;45395;-56
2022/03/12 05:10:49;;;;;;;;;7.25;5.50;;;;;7.96;74.35;101095.19;4974598;28;45361;-57
2022/03/12 05:13:16;;;;;;;;;4.00;3.25;;;;;7.97;74.17;101092.44;4974459;28;45239;-55
2022/03/12 05:15:42;;;;;;;;;3.25;3.25;;;;;7.97;74.46;101100.38;4974331;28;46450;-56
2022/03/12 05:18:12;;;;;;;;;8.00;5.00;;;;;7.88;74.45;101087.00;4973384;28;45418;-57
2022/03/12 05:20:40;;;;;;;;;5.75;4.50;;;;;7.96;74.68;101097.84;5058710;28;45423;-57
2022/03/12 05:23:07;;;;;;;;;4.25;1.75;;;;;7.94;74.18;101086.53;4974581;28;45295;-56
2022/03/12 05:25:33;;;;;;;;;4.75;4.75;;;;;7.94;74.29;101079.44;4974277;28;46896;-57
2022/03/12 05:27:59;;;;;;;;;3.50;3.50;;;;;7.92;74.10;101094.63;4974129;28;45273;-60
2022/03/12 05:30:24;;;;;;;;;5.75;4.00;;;;;7.93;74.39;101100.75;4974552;28;45604;-55
2022/03/12 05:32:51;;;;;;;;;5.00;3.00;;;;;7.91;74.22;101102.66;4974536;28;45330;-56
2022/03/12 05:35:17;;;;;;;;;6.00;4.00;;;;;7.87;74.79;101102.06;4973746;28;46101;-57
2022/03/12 05:37:45;;;;;;;;;4.25;4.25;;;;;7.91;74.67;101106.16;4974362;28;45520;-55
2022/03/12 05:40:11;;;;;;;;;7.00;5.00;;;;;7.89;74.33;101101.97;4974012;28;45486;-55
2022/03/12 05:42:37;;;;;;;;;5.00;3.25;;;;;7.92;74.48;101104.34;4974527;28;45548;-54
2022/03/12 05:45:08;;;;;;;;;5.50;3.25;;;;;7.93;74.47;101109.53;4973561;28;46168;-57
2022/03/12 05:47:36;;;;;;;;;8.00;6.25;;;;;7.93;74.45;101109.53;4974038;28;45476;-53
2022/03/12 05:50:03;;;;;;;;;2.00;2.00;;;;;7.96;74.47;101113.72;4974045;28;45325;-57
2022/03/12 05:52:28;;;;;;;;;4.50;4.50;;;;;7.95;73.49;101112.91;4974522;28;45333;-55
2022/03/12 05:54:53;;;;;;;;;7.50;4.00;;;;;7.95;74.51;101126.13;4973741;28;45820;-55
2022/03/12 05:57:19;;;;;;;;;6.50;5.50;;;;;7.95;73.99;101125.31;5058116;28;45473;-54
2022/03/12 05:59:45;;;;;;;;;7.50;5.00;;;;;7.96;73.64;101126.97;4974166;28;45215;-54
2022/03/12 06:02:10;;;;;;;;;5.50;5.25;;;;;7.97;74.27;101121.59;4974147;28;45401;-54
2022/03/12 06:04:36;;;;;;;;;7.00;6.50;;;;;7.98;74.43;101125.06;4973846;28;45478;-56
2022/03/12 06:07:02;;;;;;;;;4.00;4.00;;;;;7.95;74.46;101128.78;4973725;28;45353;-55
2022/03/12 06:09:27;;;;;;;;;6.00;6.00;;;;;7.94;74.73;101134.22;4974109;28;45418;-56
2022/03/12 06:11:53;;;;;;;;;6.25;3.25;;;;;7.93;74.46;101127.25;4973917;28;45409;-55
2022/03/12 06:14:21;;;;;;;;;5.00;4.50;;;;;7.99;73.69;101138.19;4973589;28;46334;-56
2022/03/12 06:16:48;;;;;;;;;3.25;3.25;;;;;7.85;74.29;101116.41;4973632;28;45363;-55
2022/03/12 06:19:21;;;;;;;;;5.25;4.00;;;;;8.01;73.70;101143.38;4973400;28;45338;-55
2022/03/12 06:21:47;;;;;;;;;4.25;4.00;;;;;8.03;74.09;101144.09;4973961;28;45425;-56
2022/03/12 06:24:14;;;;;;;;;2.50;0.75;;;;;8.02;73.70;101147.72;4973388;28;46298;-57
2022/03/12 06:26:41;;;;;;;;;2.00;2.00;;;;;8.06;73.73;101154.47;4973257;28;45343;-56
2022/03/12 06:29:10;;;;;;;;;5.50;3.50;;;;;8.06;73.07;101154.47;4974830;28;45450;-56
2022/03/12 06:31:36;;;;;;;;;2.00;2.00;;;;;8.06;73.03;101153.63;4976641;28;45264;-57
2022/03/12 06:34:02;;;;;;;;;3.25;3.25;;;;;8.08;73.93;101163.13;4976200;28;45348;-56
2022/03/12 06:36:27;;;;;;;;;2.50;2.50;;;;;8.08;73.66;101163.13;4975349;28;45288;-56
2022/03/12 06:38:52;;;;;;;;;8.00;4.75;;;;;7.94;72.82;101144.81;4976656;28;45537;-56
2022/03/12 06:41:19;;;;;;;;;2.25;2.25;;;;;8.01;72.73;101164.56;4976413;28;45317;-55
2022/03/12 06:43:45;;;;;;;;;3.75;3.75;;;;;7.94;73.36;101161.56;4976013;28;46059;-53
2022/03/12 06:46:13;;;;;;;;;1.75;1.75;;;;;7.89;73.38;101174.31;4975921;28;45384;-56
2022/03/12 06:48:39;;;;;;;;;5.75;3.00;;;;;7.86;73.02;101181.66;4976433;28;45449;-57
2022/03/12 06:51:05;;;;;;;;;4.50;2.50;;;;;7.84;73.89;101184.44;4976254;28;45353;-56
2022/03/12 06:53:31;;;;;;;;;3.25;3.25;;;;;7.85;73.96;101187.91;4976009;28;46047;-55
2022/03/12 06:55:58;;;;;;;;;4.25;4.25;;;;;7.88;73.64;101201.78;4975770;28;45528;-53
2022/03/12 06:58:26;;;;;;;;;7.25;3.25;;;;;7.89;74.16;101192.84;4976241;28;45384;-56
2022/03/12 07:00:52;;;;;;;;;2.00;2.00;;;;;7.89;72.64;101205.25;4976397;28;45399;-53
2022/03/12 07:03:17;;;;;;;;;2.00;2.00;;;;;7.86;73.26;101193.09;4975549;28;45355;-55
2022/03/12 07:05:43;;;;;;;;;3.25;1.00;;;;;7.91;73.95;101208.63;4976203;28;45426;-55
2022/03/12 07:08:08;;;;;;;;;2.25;2.00;;;;;7.97;73.58;101214.31;4975800;28;45331;-55
2022/03/12 07:10:34;;;;;;;;;6.50;2.25;;;;;7.97;73.56;101205.50;4976067;28;45354;-57
2022/03/12 07:12:59;;;;;;;;;2.00;2.00;;;;;8.01;73.04;101214.91;4975908;28;45764;-56
2022/03/12 07:15:25;;;;;;;;;3.25;3.00;;;;;8.08;73.13;101216.09;4975740;28;45352;-57
2022/03/12 07:17:51;;;;;;;;;6.00;2.00;;;;;8.12;72.37;101224.66;4976277;28;45406;-55
2022/03/12 07:20:17;;;;;;;;;2.00;2.00;;;;;8.14;72.39;101220.94;4976023;28;45570;-55
2022/03/12 07:22:45;;;;;;;;;4.50;4.50;;;;;8.23;73.32;101222.88;4975587;28;46005;-57
2022/03/12 07:25:12;;;;;;;;;4.75;3.50;;;;;8.27;72.75;101220.84;4975369;28;45473;-56
2022/03/12 07:27:38;;;;;;;;;5.75;3.00;;;;;8.31;72.86;101224.94;4975722;28;45440;-54
2022/03/12 07:30:05;;;;;;;;;8.25;3.00;;;;;8.33;72.67;101216.84;4975719;28;45344;-54
2022/03/12 07:32:30;;;;;;;;;4.25;2.50;;;;;8.37;72.49;101232.41;4975727;28;45297;-53
2022/03/12 07:34:56;;;;;;;;;4.50;2.25;;;;;8.41;72.14;101238.31;4975352;28;45352;-54
2022/03/12 07:37:21;;;;;;;;;9.00;5.00;;;;;8.46;72.22;101231.69;4975731;28;45406;-52
2022/03/12 07:39:47;;;;;;;;;5.25;2.00;;;;;8.54;72.29;101236.41;5060030;27;45365;-55
2022/03/12 07:42:13;;;;;;;;;8.00;5.00;;;;;8.60;72.56;101235.09;4974637;28;46367;-54
2022/03/12 07:44:39;;;;;;;;;5.50;3.00;;;;;8.66;71.88;101231.94;4975692;28;45239;-55
2022/03/12 07:47:05;;;;;;;;;5.00;4.50;;;;;8.71;70.93;101225.28;4975550;28;45410;-56
2022/03/12 07:49:31;;;;;;;;;7.75;6.00;;;;;8.68;71.59;101208.75;4976068;28;45485;-54
2022/03/12 07:51:56;;;;;;;;;6.00;5.00;;;;;8.80;70.94;101220.22;4975269;28;45378;-53
2022/03/12 07:54:23;;;;;;;;;12.00;5.75;;;;;8.85;71.02;101220.66;4975376;28;45493;-54
2022/03/12 07:56:48;;;;;;;;;5.50;3.00;;;;;8.88;70.53;101225.75;4975723;28;45433;-53
2022/03/12 07:59:14;;;;;;;;;8.50;6.00;;;;;8.90;70.36;101227.31;4975374;28;45366;-56
2022/03/12 08:01:39;;;;;;;;;9.00;5.50;;;;;8.94;70.63;101241.19;4975448;28;46125;-55
2022/03/12 08:04:06;;;;;;;;;6.25;6.00;;;;;8.91;71.12;101255.53;4975138;28;45465;-55
2022/03/12 08:06:33;;;;;;;;;12.75;8.25;;;;;8.91;70.60;101260.84;4975400;28;45465;-56
2022/03/12 08:08:59;;;;;;;;;6.00;6.00;;;;;8.94;70.40;101273.03;4975704;28;45304;-56
2022/03/12 08:11:25;;;;;;;;;7.00;6.00;;;;;8.98;71.64;101269.16;4974914;28;46464;-56
2022/03/12 08:13:55;;;;;;;;;10.25;8.50;;;;;9.01;71.20;101282.16;4975158;28;45461;-56
2022/03/12 08:16:21;;;;;;;;;10.25;8.00;;;;;9.02;70.58;101281.22;4975132;28;45425;-56
2022/03/12 08:18:46;;;;;;;;;6.75;4.50;;;;;9.04;71.13;101291.69;4975279;28;45370;-55
2022/03/12 08:21:13;;;;;;;;;7.75;7.25;;;;;9.02;71.06;101286.53;4973325;28;46303;-52
2022/03/12 08:23:39;;;;;;;;;10.00;8.75;;;;;9.03;70.23;101282.88;4975270;28;45406;-55
2022/03/12 08:26:05;;;;;;;;;9.75;6.75;;;;;9.03;70.62;101287.34;4974954;28;45497;-52
2022/03/12 08:28:34;;;;;;;;;6.00;6.00;;;;;9.04;70.84;101297.00;4975310;28;45154;-53
2022/03/12 08:31:00;;;;;;;;;9.00;6.50;;;;;9.12;71.04;101297.22;4974768;28;46400;-54
2022/03/12 08:33:25;;;;;;;;;5.75;5.75;;;;;9.14;70.26;101290.84;4974614;28;45509;-50
2022/03/12 08:35:51;;;;;;;;;8.00;8.00;;;;;9.22;70.69;101303.47;4975072;28;45687;-52
2022/03/12 08:38:17;;;;;;;;;9.75;9.75;;;;;9.28;70.89;101300.34;4975064;28;45331;-53
2022/03/12 08:40:42;;;;;;;;;16.00;9.25;;;;;9.31;70.31;101297.41;4974859;28;45281;-51
2022/03/12 08:43:08;;;;;;;;;9.50;7.00;;;;;9.32;70.32;101304.44;4974210;28;45356;-51
2022/03/12 08:45:34;;;;;;;;;10.00;10.00;;;;;9.34;70.98;101296.31;4974871;28;45371;-52
2022/03/12 08:47:59;;;;;;;;;9.25;5.00;;;;;9.39;69.97;101310.06;4974755;28;45415;-55
2022/03/12 08:50:25;;;;;;;;;9.00;6.50;;;;;9.41;70.58;101300.19;4974499;28;46772;-50
2022/03/12 08:52:52;;;;;;;;;7.25;7.25;;;;;9.47;70.97;101300.50;5057901;28;45938;-51
2022/03/12 08:55:18;;;;;;;;;10.50;7.00;;;;;9.52;70.59;101300.13;4974319;28;45586;-54
2022/03/12 08:57:44;;;;;;;;;9.75;6.00;;;;;9.58;70.08;101289.00;4974752;28;45300;-52
2022/03/12 09:00:12;;;;;;;;;10.00;7.75;;;;;9.60;69.74;101292.34;4974010;28;45445;-54
2022/03/12 09:02:39;;;;;;;;;13.00;9.25;;;;;9.64;69.79;101295.63;4974184;28;45360;-60
2022/03/12 09:05:06;;;;;;;;;8.50;8.50;;;;;9.58;70.31;101289.00;4974594;28;45298;-54
2022/03/12 09:07:33;;;;;;;;;9.00;6.75;;;;;9.64;69.90;101301.75;4974275;28;45418;-51
2022/03/12 09:09:58;;;;;;;;;12.00;5.25;;;;;9.64;69.87;101295.63;4973766;28;46210;-54
2022/03/12 09:12:25;;;;;;;;;10.50;9.00;;;;;9.68;69.82;101289.06;4974030;28;46000;-55
2022/03/12 09:14:51;;;;;;;;;6.75;6.75;;;;;9.77;69.46;101284.81;4974224;28;45493;-49
2022/03/12 09:17:16;;;;;;;;;10.25;7.00;;;;;9.80;69.66;101292.53;4974150;28;45482;-50
2022/03/12 09:19:42;;;;;;;;;11.25;10.00;;;;;9.83;70.75;101294.94;5057963;27;45396;-55
2022/03/12 09:22:07;;;;;;;;;7.25;7.25;;;;;9.87;70.41;101289.22;4974154;28;45327;-53
2022/03/12 09:24:34;;;;;;;;;3.33;2.33;;;;;9.94;70.23;101293.06;4974641;28;45438;-57
2022/03/12 09:27:00;;;;;;;;;10.67;3.00;;;;;9.98;69.93;101290.97;4974000;28;45532;-56
2022/03/12 09:29:26;;;;;;;;;9.00;6.33;;;;;9.99;69.37;101287.38;4974079;28;45826;-50
2022/03/12 09:31:52;;;;;;;;;6.00;6.00;;;;;10.00;69.44;101289.03;4974201;28;45445;-56
2022/03/12 09:34:17;;;;;;;;;10.00;6.33;;;;;10.05;69.77;101293.97;4973807;28;45410;-48
2022/03/12 09:36:42;;;;;;;;;7.75;6.75;;;;;10.07;70.32;101282.25;5023702;28;45483;-57
2022/03/12 09:39:09;;;;;;;;;9.33;6.33;;;;;10.14;69.48;101296.69;5076376;27;46095;-57
2022/03/12 09:41:38;;;;;;;;;7.67;6.00;;;;;10.13;69.45;101278.22;5076580;27;45471;-54
2022/03/12 09:44:04;;;;;;;;;8.25;8.00;;;;;10.24;69.58;101286.13;5076400;27;45508;-56
2022/03/12 09:46:30;;;;;;;;;8.50;8.50;;;;;10.35;69.00;101290.53;5076742;28;45451;-48
2022/03/12 09:48:55;;;;;;;;;15.00;12.00;;;;;10.48;69.73;101285.84;5076679;27;45678;-54
2022/03/12 09:51:22;;;;;;;;;14.50;9.50;;;;;10.66;68.91;101281.59;5076395;27;45491;-50
2022/03/12 09:53:48;;;;;;;;;9.00;9.00;;;;;10.83;68.16;101273.94;5076588;27;45451;-58
2022/03/12 09:56:13;;;;;;;;;13.67;11.00;;;;;10.93;68.31;101264.16;5076880;28;45376;-47
2022/03/12 09:58:39;;;;;;;;;8.00;8.00;;;;;11.05;68.21;101265.75;5076062;27;46130;-47
2022/03/12 10:01:04;;;;;;;;;9.67;8.00;;;;;11.18;67.54;101262.81;5076511;27;45410;-54
2022/03/12 10:03:29;;;;;;;;;9.00;7.33;;;;;11.35;66.95;101272.78;5075475;27;45472;-52
2022/03/12 10:05:55;;;;;;;;;13.33;10.67;;;;;11.60;66.51;101266.06;5076865;27;45366;-52
2022/03/12 10:08:20;;;;;;;;;13.33;11.33;;;;;11.78;65.64;101274.19;5076343;27;45859;-55
2022/03/12 10:10:46;;;;;;;;;11.00;8.00;;;;;11.89;65.32;101274.09;5076462;27;45633;-49
2022/03/12 10:13:11;;;;;;;;;10.00;7.00;;;;;12.05;64.54;101281.50;5076268;27;45384;-51
2022/03/12 10:15:37;;;;;;;;;15.00;11.00;;;;;12.10;64.53;101276.59;5076082;27;45426;-52
2022/03/12 10:18:03;;;;;;;;;12.00;8.00;;;;;12.15;64.63;101282.31;5075942;27;46590;-52
2022/03/12 10:20:30;;;;;;;;;9.67;9.67;;;;;12.16;64.23;101262.66;5075999;27;45532;-49
2022/03/12 10:22:56;;;;;;;;;13.00;10.00;;;;;12.22;64.29;101270.09;5076169;27;45299;-49
2022/03/12 10:25:22;;;;;;;;;12.67;9.00;;;;;12.21;64.10;101264.88;5075998;27;45466;-52
2022/03/12 10:27:47;;;;;;;;;12.67;10.33;;;;;12.21;64.74;101260.38;5075835;27;47245;-51
2022/03/12 10:30:12;;;;;;;;;7.67;7.00;;;;;12.15;64.52;101244.97;5075644;27;45502;-50
2022/03/12 10:32:45;;;;;;;;;14.00;8.00;;;;;12.23;64.29;101262.94;5075820;27;45369;-51
2022/03/12 10:35:15;;;;;;;;;10.33;8.00;;;;;12.22;64.63;101262.09;5075748;27;45413;-49
2022/03/12 10:37:41;;;;;;;;;7.33;6.67;;;;;12.20;64.32;101269.38;5075389;27;46126;-49
2022/03/12 10:40:19;;;;;;;;;7.67;7.67;;;;;12.21;64.97;101270.22;5075722;27;45440;-49
2022/03/12 10:42:48;;;;;;;;;13.33;9.33;;;;;12.19;64.68;101265.03;5075749;27;45253;-51
2022/03/12 10:45:17;;;;;;;;;17.00;12.67;;;;;12.19;64.26;101262.38;5075721;27;45466;-52
2022/03/12 10:47:45;;;;;;;;;9.33;9.00;;;;;12.10;64.59;101259.75;5075580;27;45481;-52
2022/03/12 10:50:20;;;;;;;;;11.33;9.00;;;;;12.08;65.01;101259.03;5075387;27;46048;-53
2022/03/12 10:52:57;;;;;;;;;10.33;7.33;;;;;12.07;65.17;101252.03;5075540;27;45264;-52
2022/03/12 10:55:28;;;;;;;;;9.00;7.00;;;;;12.08;64.54;101256.38;5075260;27;45338;-50
2022/03/12 10:58:05;;;;;;;;;8.67;6.00;;;;;12.10;64.83;101257.91;5075123;27;45397;-50
2022/03/12 11:00:35;;;;;;;;;11.33;8.00;;;;;12.06;64.88;101255.69;5075014;27;45217;-52
2022/03/12 11:03:03;;;;;;;;;13.67;13.00;;;;;12.02;65.23;101256.94;5075253;27;45429;-48
2022/03/12 11:05:32;;;;;;;;;12.67;8.67;;;;;11.98;65.49;101269.72;5075629;27;45230;-53
2022/03/12 11:08:17;;;;;;;;;12.00;9.67;;;;;11.94;65.34;101255.00;5075132;27;46076;-55
2022/03/12 11:10:52;;;;;;;;;8.33;8.00;;;;;11.94;65.25;101252.31;5075339;27;45400;-55
2022/03/12 11:13:27;;;;;;;;;13.33;9.00;;;;;11.94;65.56;101244.34;5075133;27;45492;-54
2022/03/12 11:16:09;;;;;;;;;12.00;10.00;;;;;11.95;65.43;101241.50;5076694;27;45487;-52
2022/03/12 11:18:34;;;;;;;;;7.00;7.00;;;;;12.01;65.45;101239.25;5078709;27;46306;-50
2022/03/12 11:21:00;;;;;;;;;8.00;8.00;;;;;11.96;65.03;101239.69;5078945;27;45341;-53
2022/03/12 11:23:30;;;;;;;;;11.33;10.00;;;;;11.91;65.05;101232.13;5078609;27;45428;-53
2022/03/12 11:25:58;;;;;;;;;8.00;8.00;;;;;11.84;65.60;101215.03;5079345;27;45385;-53
2022/03/12 11:28:25;;;;;;;;;9.67;8.00;;;;;11.92;65.68;101223.13;5078256;27;46957;-51